10 GIRO DELL'UMBRIA A TAPPE

4^ TAPPA - Cannara - Cantine Di Filippo (Pg) - km 9,550

15/04/2012

 

Ordine d'arrivo generale maschile - km 9,550
Pos. Pett. Cognome Nome Anno Societa' Categ. Tempo Media
1 10 Pontani Luigi 64 Atl Avis Pg MM 45 0:34:57 3,40
2 1 Conti Piergiorgio 70 Atl Avis Pg MM 40 0:34:57 3,40
3 3 Baldelli Giuseppe 68 Atl Avis Pg MM 40 0:35:32 3,43
4 5 Montioni  Cesare 81 Atl. Capanne AM.TM 0:35:54 3,46
5 11 Ametrano  Alessio 83 Pod. Corciano AM.TM 0:36:19 3,48
6 24 Salari Michele 75 Pod. Avis Fabriano MM 35 0:36:39 3,50
7 22 Mangili Manuel 79 Atl. Pavese AM.TM 0:36:52 3,52
8 57 Toni Michele 65 G.S. Gabbi MM 45 0:36:52 3,52
9 2 Dall'Ara  Michele 76 Atl. Pavese MM 35 0:37:35 3,56
10 13 Curcio Antonio 80 Atl. Pavese AM.TM 0:37:36 3,56
11 37 Sfondalmondo Massimiliano 71 Atl Avis Pg MM 40 0:37:47 3,57
12 68 Giorgetti  Claudio 60 Amatori Podistica Terni MM 50 0:38:05 3,59
13 9 Morani Evian 72 Assisi Runners MM 40 0:38:19 4,01
14 56 Tini  Fabrizio 67 Atl. Capanne MM 45 0:38:20 4,01
15 8 Bordoni  Paolo 63 Dream Runners PG MM 45 0:38:25 4,01
16 75 Pallotta Roberto 62 Winner Foligno MM 50 0:38:31 4,02
17 6 Facciolo Valerio 68 Atl. Pavese MM 40 0:38:40 4,03
18 71 Mattioli  Claudio 59 Atl Avis Pg MM 50 0:38:45 4,03
19 12 Angelucci Gabriele 86 Winner Foligno AM.TM 0:39:00 4,05
20 74 Palanca Annibale 58 C.d.p. Trb Group MM 50 0:39:06 4,06
21 20 Caporaletti Simone 76 Avis Uispsport Todi MM 35 0:39:15 4,07
22 47 Casalini Sergio 84 Winner Foligno AM.TM 0:39:20 4,07
23 102 Masiero Orazio 52 Voltan Mestre MM 60 0:39:23 4,07
24 86 D'Amico Giovanni 56 C.d.p. Trb Group MM 55 0:39:25 4,08
25 55 Ranieri  Giovanni 65 Olympic Lama MM 45 0:39:27 4,08
26 41 Bastianini  Federico 66 Dimarco Sport (VT) MM 45 0:39:29 4,08
27 34 Pirilli Andrea 69 Dream Runners PG MM 40 0:39:40 4,09
28 42 Bazzucchi Mauro 65 Aspa Bastia MM 45 0:39:43 4,10
29 54 Polticchia  Roberto 64 C.d.p. Trb Group MM 45 0:39:45 4,10
30 26 Torti Mirco 75 Winner Foligno MM 35 0:39:54 4,11
31 33 Muti Massimiliano 68 Satrini Group Trevi MM 40 0:41:00 4,18
32 109 Valente  Raffaello 52 G.S. Alpini (VI) MM 60 0:41:41 4,22
33 101 Mangialasche Alfonso 51 C.d.p. Trb Group MM 60 0:41:46 4,22
34 89 Manetta Sergio 55 Atl. Capanne MM 55 0:42:05 4,24
35 36 Ridolfi  Massimiliano 70 Assisi Runners MM 40 0:42:10 4,25
36 35 Procacci Nadio 70 Marthon Castello MM 40 0:42:10 4,25
37 88 Frenguelli Franco 56 Atl Avis Pg MM 55 0:42:11 4,25
38 40 Arcelli  Fabrizio 64 Atl Avis Pg MM 45 0:42:12 4,25
39 64 Covarelli Mauro 59 Atl Avis Pg MM 50 0:42:50 4,29
40 61 Bucari Fazio 61 Pod. Carsulae MM 50 0:42:52 4,29
41 31 Lazzarini Francesco 69 Assisi Runners MM 40 0:42:55 4,30
42 43 Binacci Massimo 65 Atl Avis Pg MM 45 0:43:15 4,32
43 91 Natalicchi  Cesare 56 Dream Runners PG MM 55 0:43:16 4,32
44 18 Brunelli  Alessandro 78 Dream Runners PG AM.TM 0:43:26 4,33
45 48 Chessa  Giovanni 65 Atl. Capanne MM 45 0:43:33 4,34
46 87 Di  Matteo  Mario 55 Atl. Capanne MM 55 0:43:35 4,34
47 38 Vecchini  Sergio 70 Marathon Castello MM 40 0:43:35 4,34
48 94 Porchetti Fabrizio 56 POD. Mirycae (TR) MM 55 0:43:36 4,34
49 44 Bosco Sabino 66 Assisi Runners MM 45 0:43:36 4,34
50 104 Passeri Luciano 51 Atl. Il Colle MM 60 0:43:37 4,34
51 14 Fastellini  Paolo 78 Dream Runners PG AM.TM 0:43:54 4,36
52 70 Mariani Massimo 62 Lino Spagnoli MM 50 0:44:04 4,37
53 53 Pastore Lorenzo 67 Winner Foligno MM 45 0:44:31 4,40
54 76 Perin Tiziano 58 Idealdoor S.Biagio (TV) MM 50 0:44:33 4,40
55 58 Bagna Mirko Mario 59 Pol. S.Orso (Aosta) MM 50 0:44:35 4,40
56 15 Felici Dimitri 81 Atl. Montefiascone (VT) AM.TM 0:44:37 4,40
57 95 Righini Solerte 54 D.L.F. Rimini MM 55 0:44:41 4,41
58 63 Canapari Francesco 58 Atl Avis Pg MM 50 0:44:42 4,41
59 27 Antonini G.Luca 72 Assisi Runners MM 40 0:44:42 4,41
60 52 Paoloni Piero 64 Atl. Capanne MM 45 0:44:43 4,41
61 49 Goracci Marco 66 Volumnia Sericap MM 45 0:44:45 4,41
62 85 Dal Pra Riccardo 53 G.S. Alpini (VI) MM 55 0:44:50 4,42
63 97 Tortorella  Carlo 55 C.d.p. Trb Group MM 55 0:45:15 4,44
64 45 Capodimonti Fausto 67 Winner Foligno MM 45 0:46:10 4,50
65 23 Saccoccini  Marco 77 Atl. Il Colle MM 35 0:46:11 4,50
66 84 Corso Vittorino 53 G.S. Alpini (VI) MM 55 0:46:12 4,50
67 78 Valente Giuseppe Nicola 60 Avisincorsa Conversano (BA) MM 50 0:47:04 4,56
68 21 Giubilei Riccardo 73 Uisp Avis Terni MM 35 0:47:06 4,56
69 93 Pierelli Vinicio 56 Atl. Taino MM 55 0:47:15 4,57
70 66 Franco Dario 58 G.S. Pomaretto MM 50 0:47:22 4,58
71 90 Mazzoli Andrea 55 Lolli Auto (BO) MM 55 0:47:51 5,01
72 51 Menconi Antonello 67 C.d.p. Trb Group MM 45 0:47:52 5,01
73 115 Ministro Giancarlo 43 Amatori Podistica Terni MM 65 0:48:16 5,03
74 28 Cucchia  Gianni 71 Volumnia Sericap MM 40 0:48:17 5,03
75 32 Meini Giuseppe 68 Avis San Sepolcro MM 40 0:48:33 5,05
76 122 Ricci  Francesco 39 Volumnia Sericap MM 70 0:48:40 5,06
77 46 Cardaioli  Danilo 63 Atl. Il Colle MM 45 0:48:41 5,06
78 65 Dal Santo  Erminio 58 G.S. Alpini (VI) MM 50 0:48:48 5,07
79 17 Uruci Ermal 84 Pod. Corciano AM.TM 0:49:05 5,08
80 80 Bonafé  Corrado 53 Castenaso (BO) MM 55 0:49:12 5,09
81 114 Mancinelli Sergio 45 Assi Giglio Rosso (Fi) MM 65 0:49:24 5,10
82 81 Boncio Maurizio 56 Aspa Bastia MM 55 0:49:40 5,12
83 98 Zorzanello Giovanni 55 G.S. Mombocar (VR) MM 55 0:49:51 5,13
84 30 Falaschi  Daniele 71 C.d.p. Trb Group MM 40 0:50:06 5,15
85 105 Puccio  Francesco 49 Atl. Pavese MM 60 0:50:08 5,15
86 121 Nobili  Pietro 40 G.P. Garlaschese (PV) MM 70 0:50:33 5,18
87 79 Verdinelli Fabio 58 Winner Foligno MM 50 0:50:40 5,18
88 112 Gasparetto Luciano 47 G.P. Montebelluna MM 65 0:50:51 5,19
89 83 Castraberte  Fausto  55 Dream Runners PG MM 55 0:50:57 5,20
90 60 Bottoloni  Raffaele 60 Volumnia Sericap MM 50 0:51:10 5,21
91 29 De Rosa Raffaele 72 Atl. Capanne MM 40 0:51:21 5,23
92 50 Laoreti Fabio 66 Amatori Podistica Terni MM 45 0:51:23 5,23
93 96 Rondini Stefano 54 Atl Avis Pg MM 55 0:51:46 5,25
94 113 Inzerillo Giovanni 46 Atl. Intesa Milano MM 65 0:52:03 5,27
95 92 Negroni Sergio 53 Winner Foligno MM 55 0:52:15 5,28
96 62 Camerucci Tiberio 60 Winner Foligno MM 50 0:52:20 5,29
97 100 Gennari Giuliano 49 Amatori Podistica Terni MM 60 0:52:51 5,32
98 99 Baldassarri Luciano 48 UISP Faenza MM 60 0:52:59 5,33
99 108 Strada Mario 52 G.P. Garlaschese (PV) MM 60 0:54:12 5,41
100 77 Piccini Franco 58 Atl. Capanne MM 50 0:55:12 5,47
101 120 Moroni Bruno 42 Atl. Capanne MM 70 0:55:20 5,48
102 124 Airoli Silvano 50 Atl. Pavese MM 60 0:55:36 5,49
103 110 Ceppi Agostino 44 Winner Foligno MM 65 0:56:28 5,55
104 116 Moracci  Guerrino 46 Atl. Intesa Milano MM 65 0:56:56 5,58
105 106 Rizzo Giorgio 49 Assindustria Rovigo MM 60 0:57:00 5,58
106 69 Grillo Giacomo 58 Amatori Podistica Terni MM 50 0:57:53 6,04
107 73 Orioli Sergio 58 Atl. Capanne MM 50 0:59:45 6,15
108 119 Ciampi  Vittorio 40 C.d.p. Trb Group MM 70 1:06:51 7,00
109 39 Vettese Marcello 72 Amatori Podistica Terni MM 40 1:11:19 7,28
110 123 Brunetti  Benito 34 Volumnia Sericap MM 75 1:13:34 7,42
111 111 Cucchetti  Fabrizio 46 Atl. Pavese MM 65 1:13:34 7,42
112 82 Bortolan  Renzo 53 Idealdoor S.Biagio (TV) MM 55 1:29:00 9,19
113 4 Ragni  Marco 80 Dream Runners PG AM.TM NP  
114 7 Tortoioli  Marco 72 Atl Avis Pg MM 40 NP  
115 25 Sfodera Marco 74 Pod. Corciano MM 35 NP  
116 67 Giacomelli Matteo 86 ASD Avis Terni AM.TM NP  
117 118 Taddei Nazzareno 46 Satrini Group Trevi MM 65 NP  
Ordine d'arrivo generale femminile - km 9,550
Pos. Pett. Cognome Nome Anno Societa' Categ. Tempo Media
1 144 Nanu Ana 73 Gabbi Bologna MF 35 0:40:44 4,16
2 142 Enriquez Irene 77 Atl. Il Colle MF 35 0:42:21 4,26
3 150 Pappadŕ Roberta 68 Atl Avis Pg MF 40 0:43:37 4,34
4 155 Draoli Maria Cristina 64 Assisi Runners MF 45 0:44:26 4,39
5 158 Murasecco  Pierpaola 66 Atl Avis Pg MF 45 0:44:38 4,40
6 174 Galbani Anna Maria 52 La Michetta (MI) MF 60 0:44:58 4,43
7 159 Palombi  Roberta 63 Atl Avis Pg MF 45 0:46:40 4,53
8 145 Piastra  Lorena 77 C.d.p. Trb Group MF 35 0:46:47 4,54
9 147 Krejci Susanne 72 Atl. Il Colle MF 40 0:47:12 4,57
10 146 Vichi Katiuscia 74 Pod. Corciano MF 35 0:47:19 4,57
11 171 Lambertini Paola 57 Atl. 85 Faenza MF 55 0:47:31 4,59
12 148 Donnini Fabiola 72 Atl. Taino MF 40 0:48:12 5,03
13 165 Picchio M. Luisa 62 Atl. Avis Pg MF 50 0:48:51 5,07
14 141 Rinaldi Laura 81 Pod. Corciano AM.TF 0:49:00 5,08
15 151 Severini  Sarita 69 Lino Spagnoli MF 40 0:49:04 5,08
16 160 Staccioli Gabriela 64 A.P. Ponte Felcino MF 45 0:49:28 5,11
17 163 Basigli Ivana 62 Atl. Capanne MF 50 0:50:04 5,15
18 166 Strada  M. Teresa 58 G.P. Garlaschese (PV) MF 50 0:51:19 5,22
19 143 Munz  Dorothee 77 Atl. Il Colle MF 35 0:51:40 5,25
20 164 Campigotto Maria Teresa 61 Idealdoor S.Biagio (TV) MF 50 0:51:53 5,26
21 156 Falchetti  Anna Maria 66 C.d.p. Trb Group MF 45 0:52:09 5,28
22 157 Giorgetti  Claudia 66 Dream Runners PG MF 45 0:52:25 5,29
23 170 Danese M. Antonietta 53 G.S. Alpini (VI) MF 55 0:52:27 5,30
24 153 Anastasi Catia Lucia 64 Atl. Taino MF 45 0:52:48 5,32
25 176 Mattiolo Franca 48 Atl. Pavese MF 60 0:52:56 5,33
26 152 Agabiti Carolina 63 Amatori Podistica Terni MF 45 0:53:06 5,34
27 172 Tron Anita 55 Atl. Valpelice MF 55 0:54:08 5,40
28 173 Bombardieri Mirka 52 Assindustria Rovigo MF 60 0:54:10 5,40
29 149 Massetti Monia 70 Lino Spagnoli MF 40 0:55:26 5,48
30 162 Vagnarelli Rema 64 Aspa Bastia MF 45 0:57:09 5,59
31 168 Anastasi Lydia Beatrice 57 Atl. Taino MF 55 0:58:32 6,08
32 161 Vaccarini  Patrizia 65 Amatori Podistica Terni MF 45 0:58:38 6,08
33 169 Cattelan Graziana 55 Idealdoor S.Biagio (TV) MF 55 1:00:29 6,20
34 178 Invernizzi  Carilla 47 G.P. Garlaschese (PV) MF 65 1:01:11 6,24
35 175 Marcolin  Norina 50 G.P. Montebelluna MF 60 1:02:03 6,30
36 177 Poggi M. Rosa 50 US Scalo Voghera (PV) MF 60 1:02:36 6,33
37 179 Stringo  Irene 42 Atl. Pavese MF 65 01:06:51 7,00
38 180 Tartamelli Lina 46 Amatori Podistica Terni MF 65 1:10:17 7,22
39 167 Fabri Patrizia 60 Aspa Bastia MF 50 NP  

------------------------------

------------------------------

------------------------------